createdAt,value
2018-12-05T00:01:36.673Z,953.69
2018-12-05T00:04:03.009Z,953.75
2018-12-05T00:06:29.330Z,953.77
2018-12-05T00:08:55.616Z,953.75
2018-12-05T00:11:21.911Z,953.77
2018-12-05T00:13:48.207Z,953.76
2018-12-05T00:16:14.504Z,953.80
2018-12-05T00:18:40.793Z,953.84
2018-12-05T00:21:07.097Z,953.90
2018-12-05T00:23:33.389Z,953.95
2018-12-05T00:25:59.688Z,954.00
2018-12-05T00:28:25.990Z,954.00
2018-12-05T00:30:52.297Z,953.98
2018-12-05T00:33:18.576Z,953.93
2018-12-05T00:35:44.871Z,953.99
2018-12-05T00:38:11.170Z,953.96
2018-12-05T00:40:37.468Z,953.98
2018-12-05T00:43:03.755Z,953.90
2018-12-05T00:45:30.059Z,953.96
2018-12-05T00:47:56.344Z,953.98
2018-12-05T00:50:22.651Z,954.02
2018-12-05T00:52:48.951Z,953.99
2018-12-05T00:55:15.252Z,953.97
2018-12-05T00:57:41.538Z,953.98
2018-12-05T01:00:07.856Z,953.97
2018-12-05T01:02:34.134Z,953.98
2018-12-05T01:05:00.447Z,953.99
2018-12-05T01:07:26.737Z,953.95
2018-12-05T01:09:53.044Z,954.10
2018-12-05T01:12:19.328Z,954.03
2018-12-05T01:14:45.626Z,954.02
2018-12-05T01:17:11.921Z,954.01
2018-12-05T01:19:38.210Z,954.04
2018-12-05T01:22:04.512Z,954.00
2018-12-05T01:24:30.819Z,953.99
2018-12-05T01:26:57.099Z,954.00
2018-12-05T01:29:23.396Z,954.02
2018-12-05T01:31:49.697Z,954.06
2018-12-05T01:34:16.006Z,954.07
2018-12-05T01:36:42.348Z,954.01
2018-12-05T01:39:08.662Z,954.07
2018-12-05T01:41:34.978Z,954.11
2018-12-05T01:44:01.329Z,954.08
2018-12-05T01:46:27.617Z,954.05
2018-12-05T01:48:53.924Z,954.05
2018-12-05T01:51:20.202Z,954.02
2018-12-05T01:53:46.540Z,954.06
2018-12-05T01:56:12.838Z,954.14
2018-12-05T01:58:39.136Z,954.12
2018-12-05T02:01:05.427Z,954.14
2018-12-05T02:03:31.741Z,954.13
2018-12-05T02:05:58.054Z,954.14
2018-12-05T02:08:24.359Z,954.21
2018-12-05T02:10:50.687Z,954.20
2018-12-05T02:13:16.991Z,954.23
2018-12-05T02:15:43.312Z,954.21
2018-12-05T02:18:09.614Z,954.25
2018-12-05T02:20:35.951Z,954.28
2018-12-05T02:23:02.247Z,954.29
2018-12-05T02:25:28.546Z,954.31
2018-12-05T02:27:54.848Z,954.30
2018-12-05T02:30:21.142Z,954.37
2018-12-05T02:32:47.435Z,954.39
2018-12-05T02:35:13.740Z,954.30
2018-12-05T02:37:40.032Z,954.35
2018-12-05T02:40:06.335Z,954.26
2018-12-05T02:42:32.637Z,954.31
2018-12-05T02:44:58.923Z,954.36
2018-12-05T02:47:25.273Z,954.37
2018-12-05T02:49:51.553Z,954.39
2018-12-05T02:52:17.858Z,954.47
2018-12-05T02:54:44.145Z,954.41
2018-12-05T02:57:10.443Z,954.42
2018-12-05T02:59:36.738Z,954.52
2018-12-05T03:02:03.048Z,954.51
2018-12-05T03:04:29.332Z,954.53
2018-12-05T03:06:55.632Z,954.57
2018-12-05T03:09:21.925Z,954.49
2018-12-05T03:11:48.235Z,954.55
2018-12-05T03:14:14.511Z,954.57
2018-12-05T03:16:40.828Z,954.66
2018-12-05T03:19:07.099Z,954.62
2018-12-05T03:21:33.400Z,954.61
2018-12-05T03:23:59.697Z,954.66
2018-12-05T03:26:26.005Z,954.72
2018-12-05T03:28:52.334Z,954.77
2018-12-05T03:31:18.635Z,954.71
2018-12-05T03:33:44.928Z,954.74
2018-12-05T03:36:11.219Z,954.74
2018-12-05T03:38:37.511Z,954.77
2018-12-05T03:41:03.819Z,954.83
2018-12-05T03:43:30.094Z,954.88
2018-12-05T03:45:56.388Z,954.78
2018-12-05T03:48:22.691Z,954.90
2018-12-05T03:50:48.995Z,954.80
2018-12-05T03:53:15.280Z,954.92
2018-12-05T03:55:41.590Z,954.89
2018-12-05T03:58:07.876Z,954.92
2018-12-05T04:00:34.173Z,954.93
2018-12-05T04:03:00.468Z,954.97
2018-12-05T04:05:26.776Z,955.03
2018-12-05T04:07:53.066Z,954.93
2018-12-05T04:10:19.355Z,955.03
2018-12-05T04:12:45.651Z,954.96
2018-12-05T04:15:11.950Z,955.01
2018-12-05T04:17:38.243Z,955.07
2018-12-05T04:20:04.551Z,955.06
2018-12-05T04:22:30.830Z,955.08
2018-12-05T04:24:57.179Z,955.16
2018-12-05T04:27:23.469Z,955.12
2018-12-05T04:29:49.792Z,955.14
2018-12-05T04:32:16.105Z,955.13
2018-12-05T04:34:42.435Z,955.21
2018-12-05T04:37:08.753Z,955.14
2018-12-05T04:39:35.045Z,955.15
2018-12-05T04:42:01.347Z,955.16
2018-12-05T04:44:27.653Z,955.15
2018-12-05T04:46:53.946Z,955.16
2018-12-05T04:49:20.256Z,955.18
2018-12-05T04:51:46.548Z,955.18
2018-12-05T04:54:12.847Z,955.21
2018-12-05T04:56:39.164Z,955.29
2018-12-05T04:59:05.451Z,955.35
2018-12-05T05:01:31.738Z,955.34
2018-12-05T05:03:58.033Z,955.37
2018-12-05T05:06:24.331Z,955.40
2018-12-05T05:08:50.639Z,955.41
2018-12-05T05:11:16.925Z,955.41
2018-12-05T05:13:43.232Z,955.47
2018-12-05T05:16:09.511Z,955.49
2018-12-05T05:18:35.804Z,955.49
2018-12-05T05:21:02.116Z,955.50
2018-12-05T05:23:28.418Z,955.50
2018-12-05T05:25:54.748Z,955.60
2018-12-05T05:28:21.053Z,955.63
2018-12-05T05:30:47.347Z,955.66
2018-12-05T05:33:13.645Z,955.61
2018-12-05T05:35:39.947Z,955.69
2018-12-05T05:38:06.246Z,955.71
2018-12-05T05:40:32.522Z,955.72
2018-12-05T05:42:58.815Z,955.69
2018-12-05T05:45:25.117Z,955.76
2018-12-05T05:47:51.419Z,955.76
2018-12-05T05:50:17.707Z,955.85
2018-12-05T05:52:44.013Z,955.86
2018-12-05T05:55:10.349Z,955.90
2018-12-05T05:57:36.681Z,955.97
2018-12-05T06:00:06.847Z,955.96
2018-12-05T06:02:33.222Z,955.96
2018-12-05T06:04:59.539Z,955.97
2018-12-05T06:07:25.869Z,956.03
2018-12-05T06:09:52.160Z,956.01
2018-12-05T06:12:18.510Z,956.07
2018-12-05T06:14:44.853Z,956.04
2018-12-05T06:17:11.144Z,956.12
2018-12-05T06:19:37.478Z,956.13
2018-12-05T06:22:03.826Z,956.16
2018-12-05T06:24:30.884Z,956.22
2018-12-05T06:26:56.541Z,956.24
2018-12-05T06:29:22.870Z,956.23
2018-12-05T06:31:49.212Z,956.35
2018-12-05T06:34:15.536Z,956.35
2018-12-05T06:36:41.872Z,956.38
2018-12-05T06:39:08.217Z,956.50
2018-12-05T06:41:34.623Z,956.58
2018-12-05T06:44:00.951Z,956.61
2018-12-05T06:46:27.282Z,956.66
2018-12-05T06:48:53.719Z,956.58
2018-12-05T06:51:20.148Z,956.72
2018-12-05T06:53:46.504Z,956.70
2018-12-05T06:56:12.918Z,956.71
2018-12-05T06:58:39.237Z,956.76
2018-12-05T07:01:05.576Z,956.97
2018-12-05T07:03:31.925Z,956.86
2018-12-05T07:05:58.263Z,956.74
2018-12-05T07:08:24.554Z,956.96
2018-12-05T07:10:50.868Z,956.96
2018-12-05T07:13:17.157Z,956.96
2018-12-05T07:15:43.461Z,957.01
2018-12-05T07:18:09.752Z,957.02
2018-12-05T07:20:36.067Z,957.05
2018-12-05T07:23:02.346Z,957.02
2018-12-05T07:25:28.651Z,956.99
2018-12-05T07:27:54.938Z,957.04
2018-12-05T07:30:21.236Z,957.02
2018-12-05T07:32:47.542Z,957.04
2018-12-05T07:35:13.849Z,957.12
2018-12-05T07:37:40.122Z,956.93
2018-12-05T07:40:06.425Z,957.07
2018-12-05T07:42:32.767Z,957.05
2018-12-05T07:44:59.069Z,957.14
2018-12-05T07:47:25.382Z,957.20
2018-12-05T07:49:51.687Z,957.16
2018-12-05T07:52:17.968Z,957.29
2018-12-05T07:54:44.263Z,957.37
2018-12-05T07:57:10.733Z,957.42
2018-12-05T07:59:37.019Z,957.42
2018-12-05T08:02:03.313Z,957.45
2018-12-05T08:04:29.612Z,957.64
2018-12-05T08:06:55.901Z,957.47
2018-12-05T08:09:22.250Z,957.64
2018-12-05T08:11:48.579Z,957.58
2018-12-05T08:14:14.829Z,957.62
2018-12-05T08:16:41.142Z,957.82
2018-12-05T08:19:07.444Z,957.80
2018-12-05T08:21:33.736Z,957.81
2018-12-05T08:24:00.027Z,957.84
2018-12-05T08:26:26.353Z,957.89
2018-12-05T08:28:52.629Z,957.81
2018-12-05T08:31:18.943Z,957.87
2018-12-05T08:33:45.239Z,957.87
2018-12-05T08:36:11.534Z,957.98
2018-12-05T08:38:37.826Z,957.92
2018-12-05T08:41:04.142Z,958.00
2018-12-05T08:43:30.440Z,957.98
2018-12-05T08:45:56.735Z,958.09
2018-12-05T08:48:23.036Z,958.01
2018-12-05T08:50:49.364Z,958.07
2018-12-05T08:53:15.650Z,957.82
2018-12-05T08:55:41.965Z,958.03
2018-12-05T08:58:08.281Z,958.07
2018-12-05T09:00:34.584Z,957.90
2018-12-05T09:03:00.866Z,958.03
2018-12-05T09:05:27.199Z,957.94
2018-12-05T09:07:53.494Z,957.97
2018-12-05T09:10:19.794Z,958.09
2018-12-05T09:12:46.103Z,958.10
2018-12-05T09:15:12.399Z,957.92
2018-12-05T09:17:38.772Z,958.07
2018-12-05T09:20:05.045Z,958.06
2018-12-05T09:22:31.346Z,958.01
2018-12-05T09:24:57.640Z,957.97
2018-12-05T09:27:23.946Z,958.00
2018-12-05T09:29:50.238Z,957.91
2018-12-05T09:32:16.525Z,957.98
2018-12-05T09:34:42.829Z,957.96
2018-12-05T09:37:09.140Z,958.05
2018-12-05T09:39:35.447Z,958.00
2018-12-05T09:42:01.730Z,958.09
2018-12-05T09:44:28.031Z,958.11
2018-12-05T09:46:54.323Z,958.06
2018-12-05T09:49:20.628Z,958.04
2018-12-05T09:51:46.918Z,958.17
2018-12-05T09:54:13.222Z,958.19
2018-12-05T09:56:39.545Z,958.20
2018-12-05T09:59:05.857Z,957.97
2018-12-05T10:01:32.146Z,958.11
2018-12-05T10:03:58.459Z,958.16
2018-12-05T10:06:24.952Z,958.07
2018-12-05T10:08:51.252Z,958.10
2018-12-05T10:11:17.543Z,957.95
2018-12-05T10:13:43.850Z,958.21
2018-12-05T10:16:10.147Z,958.21
2018-12-05T10:18:36.438Z,958.09
2018-12-05T10:21:02.725Z,958.06
2018-12-05T10:23:29.036Z,958.17
2018-12-05T10:25:55.327Z,958.12
2018-12-05T10:28:21.638Z,958.20
2018-12-05T10:30:47.935Z,958.20
2018-12-05T10:33:14.221Z,958.28
2018-12-05T10:35:40.509Z,958.23
2018-12-05T10:38:06.816Z,958.19
2018-12-05T10:40:33.118Z,958.37
2018-12-05T10:42:59.422Z,958.29
2018-12-05T10:45:25.721Z,958.11
2018-12-05T10:47:52.057Z,958.28
2018-12-05T10:50:18.345Z,958.36
2018-12-05T10:52:44.650Z,958.20
2018-12-05T10:55:10.952Z,958.34
2018-12-05T10:57:37.252Z,958.31
2018-12-05T11:00:07.467Z,958.24
2018-12-05T11:02:33.777Z,958.25
2018-12-05T11:05:00.067Z,958.29
2018-12-05T11:07:26.378Z,958.30
2018-12-05T11:09:52.671Z,958.09
2018-12-05T11:12:18.970Z,958.08
2018-12-05T11:14:45.250Z,958.00
2018-12-05T11:17:11.559Z,958.10
2018-12-05T11:19:37.854Z,958.02
2018-12-05T11:22:04.191Z,958.08
2018-12-05T11:24:30.532Z,958.08
2018-12-05T11:26:56.826Z,957.97
2018-12-05T11:29:23.112Z,958.08
2018-12-05T11:31:49.425Z,958.08
2018-12-05T11:34:15.756Z,958.06
2018-12-05T11:36:42.047Z,957.98
2018-12-05T11:39:08.348Z,957.98
2018-12-05T11:41:34.670Z,958.06
2018-12-05T11:44:00.941Z,958.04
2018-12-05T11:46:27.247Z,958.11
2018-12-05T11:48:53.543Z,958.14
2018-12-05T11:51:19.834Z,958.14
2018-12-05T11:53:46.134Z,958.16
2018-12-05T11:56:12.485Z,958.10
2018-12-05T11:58:38.786Z,958.18
2018-12-05T12:01:05.089Z,958.19
2018-12-05T12:03:31.420Z,958.27
2018-12-05T12:05:57.685Z,958.33
2018-12-05T12:08:23.963Z,958.23
2018-12-05T12:10:50.293Z,958.31
2018-12-05T12:13:16.764Z,958.27
2018-12-05T12:15:43.024Z,958.24
2018-12-05T12:18:09.345Z,958.34
2018-12-05T12:20:35.724Z,958.25
2018-12-05T12:23:02.008Z,958.33
2018-12-05T12:25:28.329Z,958.38
2018-12-05T12:27:54.627Z,958.43
2018-12-05T12:30:20.970Z,958.43
2018-12-05T12:32:47.255Z,958.49
2018-12-05T12:35:13.564Z,958.49
2018-12-05T12:37:40.109Z,958.58
2018-12-05T12:40:06.429Z,958.58
2018-12-05T12:42:32.835Z,958.59
2018-12-05T12:44:59.091Z,958.55
2018-12-05T12:47:25.421Z,958.57
2018-12-05T12:49:51.727Z,958.59
2018-12-05T12:52:18.016Z,958.66
2018-12-05T12:54:44.370Z,958.54
2018-12-05T12:57:10.594Z,958.62
2018-12-05T12:59:36.945Z,958.65
2018-12-05T13:02:03.292Z,958.55
2018-12-05T13:04:29.609Z,958.66
2018-12-05T13:06:55.913Z,958.58
2018-12-05T13:09:22.197Z,958.65
2018-12-05T13:11:48.507Z,958.69
2018-12-05T13:14:14.800Z,958.70
2018-12-05T13:16:41.083Z,958.68
2018-12-05T13:19:07.392Z,958.74
2018-12-05T13:21:33.742Z,958.88
2018-12-05T13:24:00.049Z,958.80
2018-12-05T13:26:26.386Z,958.79
2018-12-05T13:28:52.682Z,958.76
2018-12-05T13:31:18.957Z,958.72
2018-12-05T13:33:45.264Z,958.85
2018-12-05T13:36:11.551Z,958.69
2018-12-05T13:38:37.880Z,958.82
2018-12-05T13:41:04.169Z,958.84
2018-12-05T13:43:30.471Z,958.70
2018-12-05T13:45:56.758Z,958.75
2018-12-05T13:48:23.065Z,958.63
2018-12-05T13:50:49.356Z,958.76
2018-12-05T13:53:15.643Z,958.66
2018-12-05T13:55:42.821Z,958.58
2018-12-05T13:58:09.204Z,958.67
2018-12-05T14:00:35.483Z,958.64
2018-12-05T14:03:01.796Z,958.76
2018-12-05T14:05:28.091Z,958.83
2018-12-05T14:07:54.678Z,958.84
2018-12-05T14:10:20.958Z,958.87
2018-12-05T14:12:47.823Z,958.93
2018-12-05T14:15:13.564Z,958.94
2018-12-05T14:17:39.900Z,959.01
2018-12-05T14:20:06.214Z,959.04
2018-12-05T14:22:32.505Z,959.04
2018-12-05T14:24:58.796Z,959.03
2018-12-05T14:27:25.111Z,959.10
2018-12-05T14:29:51.403Z,959.18
2018-12-05T14:32:17.700Z,959.15
2018-12-05T14:34:43.983Z,959.22
2018-12-05T14:37:10.293Z,959.29
2018-12-05T14:39:36.568Z,959.30
2018-12-05T14:42:02.910Z,959.32
2018-12-05T14:44:29.211Z,959.40
2018-12-05T14:46:55.498Z,959.45
2018-12-05T14:49:21.779Z,959.40
2018-12-05T14:51:48.084Z,959.42
2018-12-05T14:54:14.395Z,959.39
2018-12-05T14:56:40.733Z,959.38
2018-12-05T14:59:07.030Z,959.33
2018-12-05T15:01:33.325Z,959.32
2018-12-05T15:03:59.648Z,959.29
2018-12-05T15:06:25.951Z,959.29
2018-12-05T15:08:52.242Z,959.24
2018-12-05T15:11:18.562Z,959.28
2018-12-05T15:13:44.826Z,959.30
2018-12-05T15:16:11.174Z,959.34
2018-12-05T15:18:37.457Z,959.38
2018-12-05T15:21:03.817Z,959.31
2018-12-05T15:23:30.115Z,959.43
2018-12-05T15:25:56.406Z,959.43
2018-12-05T15:28:22.701Z,959.40
2018-12-05T15:30:49.052Z,959.43
2018-12-05T15:33:15.354Z,959.47
2018-12-05T15:35:41.639Z,959.48
2018-12-05T15:38:08.173Z,959.55
2018-12-05T15:40:34.465Z,959.61
2018-12-05T15:43:00.817Z,959.68
2018-12-05T15:45:27.111Z,959.52
2018-12-05T15:47:53.443Z,959.59
2018-12-05T15:50:19.734Z,959.55
2018-12-05T15:52:46.023Z,959.61
2018-12-05T15:55:12.326Z,959.57
2018-12-05T15:57:38.603Z,959.72
2018-12-05T16:00:05.869Z,959.65
2018-12-05T16:02:32.166Z,959.63
2018-12-05T16:04:58.453Z,959.70
2018-12-05T16:07:24.733Z,959.63
2018-12-05T16:09:51.034Z,959.58
2018-12-05T16:12:17.335Z,959.62
2018-12-05T16:14:43.624Z,959.63
2018-12-05T16:17:09.918Z,959.61
2018-12-05T16:19:36.204Z,959.69
2018-12-05T16:22:02.494Z,959.76
2018-12-05T16:24:28.790Z,959.75
2018-12-05T16:26:55.082Z,959.78
2018-12-05T16:29:21.382Z,959.80
2018-12-05T16:31:47.672Z,959.82
2018-12-05T16:34:14.004Z,959.77
2018-12-05T16:36:40.280Z,959.88
2018-12-05T16:39:06.612Z,959.89
2018-12-05T16:41:32.880Z,959.98
2018-12-05T16:44:00.538Z,959.92
2018-12-05T16:46:25.465Z,959.95
2018-12-05T16:48:51.775Z,959.91
2018-12-05T16:51:18.113Z,960.00
2018-12-05T16:53:44.486Z,959.95
2018-12-05T16:56:10.777Z,960.00
2018-12-05T16:58:37.061Z,960.11
2018-12-05T17:01:03.387Z,960.08
2018-12-05T17:03:29.777Z,960.05
2018-12-05T17:05:56.004Z,960.05
2018-12-05T17:08:22.295Z,960.12
2018-12-05T17:10:48.593Z,960.12
2018-12-05T17:13:14.907Z,960.08
2018-12-05T17:15:41.219Z,960.16
2018-12-05T17:18:07.498Z,960.23
2018-12-05T17:20:33.802Z,960.22
2018-12-05T17:23:00.102Z,960.27
2018-12-05T17:25:26.432Z,960.28
2018-12-05T17:27:52.747Z,960.33
2018-12-05T17:30:20.257Z,960.32
2018-12-05T17:32:46.554Z,960.35
2018-12-05T17:35:12.853Z,960.30
2018-12-05T17:37:39.145Z,960.30
2018-12-05T17:40:05.475Z,960.32
2018-12-05T17:42:31.780Z,960.35
2018-12-05T17:44:58.086Z,960.32
2018-12-05T17:47:24.390Z,960.40
2018-12-05T17:49:50.717Z,960.40
2018-12-05T17:52:17.066Z,960.40
2018-12-05T17:54:43.352Z,960.35
2018-12-05T17:57:09.676Z,960.36
2018-12-05T17:59:35.968Z,960.41
2018-12-05T18:02:02.277Z,960.43
2018-12-05T18:04:28.554Z,960.44
2018-12-05T18:06:54.860Z,960.38
2018-12-05T18:09:21.155Z,960.46
2018-12-05T18:11:47.446Z,960.28
2018-12-05T18:14:13.769Z,960.35
2018-12-05T18:16:40.033Z,960.35
2018-12-05T18:19:06.353Z,960.40
2018-12-05T18:21:32.674Z,960.40
2018-12-05T18:23:58.949Z,960.42
2018-12-05T18:26:25.295Z,960.43
2018-12-05T18:28:51.593Z,960.40
2018-12-05T18:31:18.108Z,960.42
2018-12-05T18:33:44.422Z,960.42
2018-12-05T18:36:10.702Z,960.46
2018-12-05T18:38:37.005Z,960.54
2018-12-05T18:41:03.305Z,960.52
2018-12-05T18:43:29.970Z,960.54
2018-12-05T18:45:56.250Z,960.50
2018-12-05T18:48:22.604Z,960.62
2018-12-05T18:50:48.902Z,960.68
2018-12-05T18:53:15.240Z,960.63
2018-12-05T18:55:41.543Z,960.73
2018-12-05T18:58:07.843Z,960.71
2018-12-05T19:00:34.164Z,960.72
2018-12-05T19:03:00.549Z,960.76
2018-12-05T19:05:26.769Z,960.76
2018-12-05T19:07:53.901Z,960.76
2018-12-05T19:10:20.235Z,960.79
2018-12-05T19:12:47.069Z,960.84
2018-12-05T19:15:14.040Z,960.83
2018-12-05T19:17:40.959Z,960.83
2018-12-05T19:20:08.006Z,960.84
2018-12-05T19:22:34.849Z,960.88
2018-12-05T19:25:01.780Z,960.88
2018-12-05T19:27:28.681Z,960.88
2018-12-05T19:29:55.686Z,960.89
2018-12-05T19:32:22.645Z,960.97
2018-12-05T19:34:48.942Z,960.97
2018-12-05T19:37:15.263Z,961.04
2018-12-05T19:39:41.563Z,961.00
2018-12-05T19:42:07.869Z,961.01
2018-12-05T19:44:34.177Z,960.99
2018-12-05T19:47:00.554Z,960.96
2018-12-05T19:49:26.915Z,960.96
2018-12-05T19:51:53.253Z,960.99
2018-12-05T19:54:19.540Z,960.99
2018-12-05T19:56:45.880Z,961.03
2018-12-05T19:59:12.205Z,961.01
2018-12-05T20:01:38.515Z,961.04
2018-12-05T20:04:04.845Z,961.06
2018-12-05T20:06:31.135Z,961.12
2018-12-05T20:08:57.441Z,961.06
2018-12-05T20:11:23.766Z,961.04
2018-12-05T20:13:50.074Z,961.11
2018-12-05T20:16:16.437Z,961.04
2018-12-05T20:18:42.807Z,961.07
2018-12-05T20:21:09.130Z,961.08
2018-12-05T20:23:35.428Z,961.14
2018-12-05T20:26:01.737Z,961.11
2018-12-05T20:28:28.293Z,961.03
2018-12-05T20:30:54.606Z,961.12
2018-12-05T20:33:20.886Z,961.15
2018-12-05T20:35:47.195Z,961.18
2018-12-05T20:38:13.496Z,961.15
2018-12-05T20:40:39.896Z,961.20
2018-12-05T20:43:06.079Z,961.22
2018-12-05T20:45:32.436Z,961.26
2018-12-05T20:47:58.817Z,961.22
2018-12-05T20:50:25.409Z,961.24
2018-12-05T20:52:51.780Z,961.29
2018-12-05T20:55:18.242Z,961.29
2018-12-05T20:57:44.585Z,961.33
2018-12-05T21:00:10.881Z,961.37
2018-12-05T21:02:37.182Z,961.37
2018-12-05T21:05:03.544Z,961.36
2018-12-05T21:07:29.837Z,961.35
2018-12-05T21:09:56.176Z,961.37
2018-12-05T21:12:22.473Z,961.35
2018-12-05T21:14:48.769Z,961.37
2018-12-05T21:17:15.067Z,961.35
2018-12-05T21:19:41.394Z,961.30
2018-12-05T21:22:07.677Z,961.23
2018-12-05T21:24:33.974Z,961.26
2018-12-05T21:27:00.273Z,961.27
2018-12-05T21:29:26.562Z,961.28
2018-12-05T21:31:52.856Z,961.18
2018-12-05T21:34:19.168Z,961.25
2018-12-05T21:36:45.450Z,961.22
2018-12-05T21:39:11.750Z,961.22
2018-12-05T21:41:38.045Z,961.20
2018-12-05T21:44:04.378Z,961.37
2018-12-05T21:46:30.681Z,961.20
2018-12-05T21:48:57.005Z,961.32
2018-12-05T21:51:23.288Z,961.29
2018-12-05T21:53:49.583Z,961.30
2018-12-05T21:56:15.872Z,961.30
2018-12-05T21:58:42.173Z,961.26
2018-12-05T22:01:08.444Z,961.28
2018-12-05T22:03:34.776Z,961.35
2018-12-05T22:06:01.086Z,961.28
2018-12-05T22:08:27.383Z,961.33
2018-12-05T22:10:53.860Z,961.21
2018-12-05T22:13:21.389Z,961.28
2018-12-05T22:15:47.661Z,961.27
2018-12-05T22:18:13.975Z,961.24
2018-12-05T22:20:40.335Z,961.29
2018-12-05T22:23:06.658Z,961.31
2018-12-05T22:25:32.929Z,961.29
2018-12-05T22:27:59.234Z,961.32
2018-12-05T22:30:25.518Z,961.28
2018-12-05T22:32:51.811Z,961.26
2018-12-05T22:35:18.105Z,961.23
2018-12-05T22:37:44.409Z,961.35
2018-12-05T22:40:10.712Z,961.35
2018-12-05T22:42:36.998Z,961.29
2018-12-05T22:45:03.298Z,961.29
2018-12-05T22:47:29.609Z,961.33
2018-12-05T22:49:55.908Z,961.39
2018-12-05T22:52:22.208Z,961.38
2018-12-05T22:54:48.481Z,961.31
2018-12-05T22:57:14.799Z,961.34
2018-12-05T22:59:41.141Z,961.31
2018-12-05T23:02:07.441Z,961.26
2018-12-05T23:04:33.720Z,961.37
2018-12-05T23:07:00.028Z,961.43
2018-12-05T23:09:26.315Z,961.36
2018-12-05T23:11:52.635Z,961.49
2018-12-05T23:14:18.967Z,961.47
2018-12-05T23:16:45.263Z,961.46
2018-12-05T23:19:11.579Z,961.34
2018-12-05T23:21:37.872Z,961.41
2018-12-05T23:24:04.172Z,961.37
2018-12-05T23:26:30.464Z,961.48
2018-12-05T23:28:56.759Z,961.44
2018-12-05T23:31:23.063Z,961.43
2018-12-05T23:33:49.351Z,961.39
2018-12-05T23:36:15.650Z,961.38
2018-12-05T23:38:41.961Z,961.46
2018-12-05T23:41:08.257Z,961.54
2018-12-05T23:43:34.609Z,961.60
2018-12-05T23:46:00.898Z,961.47
2018-12-05T23:48:27.188Z,961.57
2018-12-05T23:50:53.596Z,961.63
2018-12-05T23:53:19.872Z,961.70
2018-12-05T23:55:46.187Z,961.54
2018-12-05T23:58:12.539Z,961.64
